Time;durP1;ratioP1;P1;durP2;ratioP2;P2;SDS_P1;SDS_P2;PMS_P1;PMS_P2;Temp;Humidity;BMP_temperature;BMP_pressure;BME280_temperature;BME280_humidity;BME280_pressure;Samples;Min_cycle;Max_cycle;Signal;HPM_P1;HPM_P2
2023/08/21 00:01:16;;;;;;;7.70;4.05;;;21.00;99.90;;;;;;4956432;28;20075;-80
2023/08/21 00:03:41;;;;;;;6.30;3.97;;;;;;;;;;4953514;28;20200;-80
2023/08/21 00:06:07;;;;;;;8.13;4.30;;;;;;;;;;4949657;28;20033;-79
2023/08/21 00:08:33;;;;;;;8.73;4.15;;;;;;;;;;4957466;28;20023;-79
2023/08/21 00:11:00;;;;;;;6.68;3.97;;;;;;;;;;4953549;28;20031;-79
2023/08/21 00:13:26;;;;;;;6.75;4.25;;;;;;;;;;4956383;28;20035;-80
2023/08/21 00:15:52;;;;;;;6.53;3.78;;;;;;;;;;4959905;28;20037;-80
2023/08/21 00:18:18;;;;;;;8.57;4.47;;;;;;;;;;4972598;28;20034;-79
2023/08/21 00:20:44;;;;;;;7.47;4.30;;;;;;;;;;4973963;28;20099;-79
2023/08/21 00:23:10;;;;;;;6.35;4.18;;;;;;;;;;4979114;28;20066;-78
2023/08/21 00:25:36;;;;;;;9.38;4.35;;;;;;;;;;4962847;28;20042;-79
2023/08/21 00:28:02;;;;;;;9.43;4.15;;;;;;;;;;4977600;28;20027;-80
2023/08/21 00:30:28;;;;;;;5.95;3.92;;;;;;;;;;4962859;28;20023;-80
2023/08/21 00:32:54;;;;;;;7.57;4.00;;;;;;;;;;4961522;28;20030;-78
2023/08/21 00:35:20;;;;;;;6.85;3.83;;;;;;;;;;4964156;28;20463;-79
2023/08/21 00:37:46;;;;;;;6.45;4.13;;;;;;;;;;4963191;28;20113;-80
2023/08/21 00:40:13;;;;;;;8.55;4.00;;;21.00;99.90;;;;;;4961800;28;20161;-81
2023/08/21 00:42:40;;;;;;;10.40;3.95;;;;;;;;;;4978691;28;20031;-81
2023/08/21 00:45:08;;;;;;;8.45;4.93;;;;;;;;;;4982033;28;20038;-79
2023/08/21 00:47:34;;;;;;;8.07;4.10;;;;;;;;;;4948396;28;20023;-80
2023/08/21 00:50:00;;;;;;;8.32;4.20;;;;;;;;;;4969748;28;20145;-81
2023/08/21 00:52:26;;;;;;;8.32;4.47;;;;;;;;;;4964082;28;20033;-80
2023/08/21 00:54:52;;;;;;;7.93;4.18;;;;;;;;;;4978457;28;20629;-80
2023/08/21 00:57:18;;;;;;;5.72;3.85;;;;;;;;;;4965594;28;20113;-81
2023/08/21 00:59:44;;;;;;;6.78;3.58;;;21.00;99.90;;;;;;4963923;28;20031;-80
2023/08/21 01:02:11;;;;;;;5.53;3.95;;;;;;;;;;4966043;28;20184;-81
2023/08/21 01:04:37;;;;;;;9.13;4.38;;;;;;;;;;4979856;28;20524;-80
2023/08/21 01:07:09;;;;;;;5.82;4.15;;;;;;;;;;4961731;28;20419;-81
2023/08/21 01:09:44;;;;;;;8.00;4.53;;;20.90;99.90;;;;;;4957347;28;20019;-81
2023/08/21 01:12:18;;;;;;;9.25;5.35;;;21.00;99.90;;;;;;4978785;28;20031;-82
2023/08/21 01:14:58;;;;;;;9.23;4.38;;;20.60;99.90;;;;;;4945687;28;20039;-82
2023/08/21 01:17:25;;;;;;;10.00;3.97;;;21.00;99.90;;;;;;4956020;28;20506;-82
2023/08/21 01:19:52;;;;;;;11.07;4.35;;;20.90;99.90;;;;;;4960520;28;20122;-81
2023/08/21 01:22:18;;;;;;;7.68;4.50;;;;;;;;;;4961725;28;20038;-81
2023/08/21 01:24:44;;;;;;;7.20;4.30;;;;;;;;;;4981511;28;20035;-82
2023/08/21 01:27:12;;;;;;;8.75;4.45;;;20.70;99.90;;;;;;4976832;28;20077;-82
2023/08/21 01:29:38;;;;;;;6.82;3.63;;;;;;;;;;4958047;28;20026;-81
2023/08/21 01:32:04;;;;;;;6.65;4.30;;;;;;;;;;4959309;28;20027;-82
2023/08/21 01:34:33;;;;;;;6.00;3.20;;;20.50;99.90;;;;;;4960163;28;20038;-81
2023/08/21 01:37:00;;;;;;;13.00;4.35;;;;;;;;;;4961376;28;20019;-79
2023/08/21 01:39:26;;;;;;;6.10;3.83;;;;;;;;;;4962788;28;20035;-81
2023/08/21 01:41:52;;;;;;;7.10;4.05;;;;;;;;;;4982926;28;20526;-82
2023/08/21 01:44:18;;;;;;;8.63;3.70;;;;;;;;;;4957559;28;20027;-82
2023/08/21 01:46:44;;;;;;;5.72;3.80;;;;;;;;;;4958140;28;20038;-82
2023/08/21 01:49:10;;;;;;;7.20;3.67;;;;;;;;;;4976499;28;20089;-82
2023/08/21 01:51:36;;;;;;;7.32;4.03;;;;;;;;;;4975197;28;20027;-81
2023/08/21 01:54:02;;;;;;;6.65;4.75;;;;;;;;;;4959651;28;20034;-82
2023/08/21 01:56:28;;;;;;;8.40;4.53;;;;;;;;;;4961837;28;20034;-82
2023/08/21 01:58:54;;;;;;;6.20;4.07;;;;;;;;;;4978813;28;20039;-82
2023/08/21 02:01:20;;;;;;;7.38;5.13;;;;;;;;;;4976731;28;20077;-82
2023/08/21 02:03:46;;;;;;;8.27;4.70;;;;;;;;;;4974322;28;22103;-82
2023/08/21 02:06:14;;;;;;;8.75;4.38;;;;;;;;;;4958915;28;20023;-82
2023/08/21 02:08:40;;;;;;;9.48;5.03;;;;;;;;;;4971541;28;20503;-80
2023/08/21 02:11:06;;;;;;;7.47;4.57;;;;;;;;;;4960481;28;20054;-81
2023/08/21 02:13:32;;;;;;;8.15;4.63;;;;;;;;;;4980123;28;20023;-81
2023/08/21 02:15:58;;;;;;;11.30;5.03;;;;;;;;;;4957664;28;20023;-82
2023/08/21 02:18:24;;;;;;;7.85;4.47;;;;;;;;;;4976315;28;20043;-82
2023/08/21 02:20:50;;;;;;;7.00;4.28;;;;;;;;;;4965036;28;20042;-82
2023/08/21 02:23:17;;;;;;;8.50;4.32;;;;;;;;;;4966349;28;20031;-82
2023/08/21 02:25:43;;;;;;;11.60;5.00;;;;;;;;;;5000498;28;20031;-78
2023/08/21 02:28:09;;;;;;;8.75;4.32;;;;;;;;;;4983001;28;20047;-80
2023/08/21 02:30:35;;;;;;;7.65;3.88;;;;;;;;;;4994307;28;20115;-80
2023/08/21 02:33:00;;;;;;;6.82;4.10;;;20.30;99.90;;;;;;4982325;28;20484;-82
2023/08/21 02:35:26;;;;;;;12.90;4.50;;;;;;;;;;4969793;28;20472;-80
2023/08/21 02:37:52;;;;;;;7.75;3.65;;;;;;;;;;4981884;28;20055;-81
2023/08/21 02:40:18;;;;;;;7.75;3.92;;;20.20;99.90;;;;;;4981142;28;20086;-82
2023/08/21 02:42:43;;;;;;;7.15;4.15;;;;;;;;;;4942495;28;20045;-82
2023/08/21 02:45:09;;;;;;;6.57;3.80;;;19.90;99.90;;;;;;4976306;28;20066;-81
2023/08/21 02:47:37;;;;;;;7.05;4.25;;;20.40;99.90;;;;;;4977141;28;20827;-82
2023/08/21 02:50:04;;;;;;;9.23;4.35;;;19.40;99.90;;;;;;4977955;28;20034;-82
2023/08/21 02:52:31;;;;;;;9.32;4.40;;;;;;;;;;4961338;28;20061;-82
2023/08/21 02:54:57;;;;;;;8.90;3.97;;;;;;;;;;4954317;28;20126;-82
2023/08/21 02:57:24;;;;;;;7.53;4.20;;;20.40;99.90;;;;;;4958216;28;20043;-82
2023/08/21 02:59:49;;;;;;;7.38;3.95;;;;;;;;;;4957282;28;20046;-81
2023/08/21 03:02:16;;;;;;;7.47;4.20;;;;;;;;;;4976163;28;20038;-82
2023/08/21 03:04:42;;;;;;;11.52;4.90;;;;;;;;;;4979145;28;20122;-82
2023/08/21 03:07:08;;;;;;;10.07;4.45;;;;;;;;;;4957786;28;20117;-82
2023/08/21 03:09:34;;;;;;;7.97;4.40;;;;;;;;;;4960298;28;20107;-82
2023/08/21 03:12:01;;;;;;;9.50;4.38;;;;;;;;;;4976442;28;20114;-80
2023/08/21 03:14:27;;;;;;;9.63;4.35;;;;;;;;;;4961240;28;20038;-81
2023/08/21 03:16:53;;;;;;;7.70;3.33;;;;;;;;;;4958280;28;20038;-81
2023/08/21 03:19:19;;;;;;;8.95;4.40;;;;;;;;;;4961147;28;20041;-82
2023/08/21 03:21:46;;;;;;;6.63;4.07;;;;;;;;;;4960342;28;20027;-80
2023/08/21 03:24:12;;;;;;;8.07;4.13;;;;;;;;;;4956963;28;20046;-82
2023/08/21 03:26:38;;;;;;;13.55;4.50;;;;;;;;;;4970546;28;20099;-81
2023/08/21 03:29:03;;;;;;;5.80;3.72;;;;;;;;;;4943306;28;20066;-79
2023/08/21 03:31:30;;;;;;;6.18;3.80;;;;;;;;;;4958842;28;20073;-80
2023/08/21 03:33:56;;;;;;;6.50;4.00;;;;;;;;;;4973552;28;20034;-80
2023/08/21 03:36:30;;;;;;;8.98;4.88;;;20.20;99.90;;;;;;4955377;28;20081;-79
2023/08/21 03:38:56;;;;;;;9.45;4.63;;;;;;;;;;4952741;28;20033;-80
2023/08/21 03:41:22;;;;;;;7.53;3.70;;;;;;;;;;4972296;28;20039;-78
2023/08/21 03:43:48;;;;;;;6.68;4.15;;;;;;;;;;4956587;28;20077;-81
2023/08/21 03:46:14;;;;;;;11.38;4.45;;;;;;;;;;4956418;28;20862;-81
2023/08/21 03:48:42;;;;;;;8.73;3.72;;;;;;;;;;4955973;28;20466;-82
2023/08/21 03:51:08;;;;;;;6.03;3.50;;;;;;;;;;4963968;28;20030;-81
2023/08/21 03:53:34;;;;;;;7.57;4.28;;;;;;;;;;4958592;28;20034;-81
2023/08/21 03:56:01;;;;;;;9.23;4.03;;;;;;;;;;4972884;28;20035;-80
2023/08/21 03:58:27;;;;;;;9.05;4.18;;;;;;;;;;4961115;28;20030;-81
2023/08/21 04:00:54;;;;;;;8.57;4.05;;;;;;;;;;4981047;28;20046;-81
2023/08/21 04:03:20;;;;;;;7.60;4.75;;;19.40;99.90;;;;;;4952689;28;20028;-79
2023/08/21 04:05:46;;;;;;;7.68;4.50;;;;;;;;;;4962877;28;20034;-81
2023/08/21 04:08:12;;;;;;;9.95;4.07;;;;;;;;;;4967389;28;20734;-81
2023/08/21 04:10:38;;;;;;;8.55;3.85;;;19.40;99.90;;;;;;4962553;28;20080;-81
2023/08/21 04:13:06;;;;;;;8.50;4.35;;;;;;;;;;4961683;28;20027;-79
2023/08/21 04:15:32;;;;;;;7.05;4.03;;;;;;;;;;4967223;28;20518;-80
2023/08/21 04:17:58;;;;;;;6.97;4.15;;;;;;;;;;4972172;28;20073;-80
2023/08/21 04:20:24;;;;;;;4.57;3.40;;;;;;;;;;4959950;28;20055;-80
2023/08/21 04:22:50;;;;;;;6.22;3.53;;;;;;;;;;4973300;28;20070;-81
2023/08/21 04:25:16;;;;;;;8.43;3.88;;;;;;;;;;4964643;28;20122;-80
2023/08/21 04:27:43;;;;;;;4.72;3.10;;;;;;;;;;4962976;28;20038;-82
2023/08/21 04:30:09;;;;;;;5.10;3.42;;;;;;;;;;4974032;28;20118;-82
2023/08/21 04:32:35;;;;;;;6.28;3.80;;;;;;;;;;4959409;28;20035;-81
2023/08/21 04:35:01;;;;;;;6.25;3.55;;;;;;;;;;4961868;28;20045;-81
2023/08/21 04:37:27;;;;;;;5.45;3.60;;;;;;;;;;4963484;28;20063;-81
2023/08/21 04:39:54;;;;;;;6.05;3.42;;;18.80;99.90;;;;;;4960803;28;20041;-79
2023/08/21 04:42:20;;;;;;;5.90;3.53;;;;;;;;;;4957559;28;20059;-82
2023/08/21 04:44:46;;;;;;;10.82;4.80;;;;;;;;;;4980891;28;20499;-82
2023/08/21 04:47:21;;;;;;;5.82;4.45;;;;;;;;;;4961794;28;20077;-81
2023/08/21 04:49:49;;;;;;;7.10;4.53;;;20.00;99.90;;;;;;4971949;28;20056;-80
2023/08/21 04:52:15;;;;;;;6.57;3.88;;;;;;;;;;4953569;28;20035;-81
2023/08/21 04:54:41;;;;;;;7.25;4.60;;;;;;;;;;4967956;28;20672;-81
2023/08/21 04:57:06;;;;;;;8.57;5.43;;;;;;;;;;4963606;28;20035;-82
2023/08/21 04:59:32;;;;;;;7.63;4.15;;;;;;;;;;4961276;28;20130;-81
2023/08/21 05:01:58;;;;;;;11.93;4.72;;;;;;;;;;4968492;28;20026;-82
2023/08/21 05:04:25;;;;;;;7.43;4.68;;;;;;;;;;4942982;28;20061;-80
2023/08/21 05:06:51;;;;;;;9.30;4.60;;;;;;;;;;4982747;28;20040;-81
2023/08/21 05:09:16;;;;;;;7.88;4.78;;;19.80;99.90;;;;;;4963010;28;20114;-82
2023/08/21 05:11:42;;;;;;;10.02;4.75;;;;;;;;;;4965666;28;20030;-80
2023/08/21 05:14:08;;;;;;;10.48;4.57;;;;;;;;;;4965259;28;20495;-80
2023/08/21 05:16:35;;;;;;;7.65;4.60;;;20.20;99.90;;;;;;4957222;28;20439;-80
2023/08/21 05:19:01;;;;;;;6.47;3.80;;;;;;;;;;4983236;28;20096;-80
2023/08/21 05:21:27;;;;;;;7.60;3.40;;;20.20;99.90;;;;;;4966699;28;20034;-79
2023/08/21 05:23:53;;;;;;;6.85;3.72;;;;;;;;;;4980831;28;20026;-80
2023/08/21 05:26:19;;;;;;;5.20;3.45;;;20.30;99.90;;;;;;4983326;28;20046;-79
2023/08/21 05:28:45;;;;;;;5.22;3.33;;;;;;;;;;4957006;28;20118;-80
2023/08/21 05:31:11;;;;;;;6.07;3.60;;;;;;;;;;4964612;28;20126;-80
2023/08/21 05:33:37;;;;;;;7.70;4.50;;;;;;;;;;4971886;28;20042;-81
2023/08/21 05:36:03;;;;;;;6.13;3.33;;;;;;;;;;4970512;28;20034;-81
2023/08/21 05:38:29;;;;;;;9.38;4.55;;;;;;;;;;4970385;28;20117;-79
2023/08/21 05:40:55;;;;;;;7.95;3.78;;;;;;;;;;4970310;28;20586;-81
2023/08/21 05:43:21;;;;;;;6.85;3.75;;;;;;;;;;4959375;28;20042;-81
2023/08/21 05:45:47;;;;;;;10.13;4.32;;;;;;;;;;4969075;28;20085;-81
2023/08/21 05:48:13;;;;;;;7.57;4.28;;;;;;;;;;4954302;28;20110;-82
2023/08/21 05:50:39;;;;;;;6.32;4.25;;;;;;;;;;4970944;28;20034;-79
2023/08/21 05:53:07;;;;;;;8.77;4.53;;;;;;;;;;4982792;28;20026;-79
2023/08/21 05:55:33;;;;;;;7.78;4.60;;;;;;;;;;4978883;28;20562;-80
2023/08/21 05:57:58;;;;;;;5.63;4.45;;;21.30;99.90;;;;;;4956942;28;20578;-81
2023/08/21 06:00:24;;;;;;;6.72;4.18;;;;;;;;;;4977619;28;20272;-80
2023/08/21 06:02:50;;;;;;;9.70;4.72;;;;;;;;;;4974013;28;20738;-79
2023/08/21 06:05:16;;;;;;;9.05;4.47;;;;;;;;;;4965576;28;20037;-81
2023/08/21 06:07:43;;;;;;;8.65;4.03;;;;;;;;;;4970692;28;20030;-81
2023/08/21 06:10:14;;;;;;;6.15;3.78;;;20.80;99.90;;;;;;4959633;28;20027;-81
2023/08/21 06:12:41;;;;;;;7.07;4.40;;;;;;;;;;4959074;28;20044;-81
2023/08/21 06:15:10;;;;;;;6.25;4.28;;;;;;;;;;4978552;28;20027;-81
2023/08/21 06:17:42;;;;;;;9.23;4.53;;;21.40;99.90;;;;;;4961327;28;20301;-81
2023/08/21 06:20:13;;;;;;;6.75;4.00;;;;;;;;;;4972046;28;20392;-80
2023/08/21 06:22:39;;;;;;;7.22;4.45;;;;;;;;;;4965735;28;20239;-80
2023/08/21 06:25:05;;;;;;;5.30;3.95;;;;;;;;;;4973974;28;20046;-80
2023/08/21 06:27:31;;;;;;;7.18;4.20;;;;;;;;;;4951763;28;20755;-80
2023/08/21 06:29:57;;;;;;;7.88;4.72;;;;;;;;;;4949945;28;20507;-82
2023/08/21 06:32:24;;;;;;;10.95;4.35;;;;;;;;;;4961153;28;20107;-81
2023/08/21 06:34:50;;;;;;;6.63;3.97;;;;;;;;;;4973421;28;20760;-82
2023/08/21 06:37:16;;;;;;;10.73;4.70;;;;;;;;;;4961996;28;20039;-81
2023/08/21 06:39:42;;;;;;;8.25;4.40;;;;;;;;;;4969017;28;20129;-83
2023/08/21 06:42:08;;;;;;;8.02;4.95;;;;;;;;;;4952683;28;20030;-81
2023/08/21 06:44:34;;;;;;;7.38;4.25;;;;;;;;;;4950076;28;20106;-83
2023/08/21 06:47:01;;;;;;;6.97;3.55;;;;;;;;;;4951062;28;20065;-82
2023/08/21 06:49:27;;;;;;;7.63;4.78;;;;;;;;;;4949623;28;20034;-81
2023/08/21 06:51:53;;;;;;;7.25;4.20;;;;;;;;;;4955684;28;20035;-81
2023/08/21 06:54:19;;;;;;;7.85;4.50;;;;;;;;;;4970232;28;20034;-83
2023/08/21 06:56:45;;;;;;;7.90;4.25;;;;;;;;;;4972328;28;20128;-81
2023/08/21 06:59:11;;;;;;;8.60;4.65;;;;;;;;;;4946597;28;20034;-83
2023/08/21 07:01:37;;;;;;;7.75;4.30;;;;;;;;;;4968988;28;20517;-80
2023/08/21 07:04:03;;;;;;;7.20;3.92;;;;;;;;;;4943049;28;20030;-82
2023/08/21 07:06:30;;;;;;;8.75;4.32;;;25.30;99.90;;;;;;4966663;28;20045;-83
2023/08/21 07:08:56;;;;;;;6.10;3.97;;;;;;;;;;4940324;28;20081;-82
2023/08/21 07:11:22;;;;;;;7.93;3.63;;;;;;;;;;4975565;28;20538;-82
2023/08/21 07:13:48;;;;;;;10.45;5.32;;;;;;;;;;4957772;28;20027;-83
2023/08/21 07:16:14;;;;;;;6.55;4.65;;;;;;;;;;4946571;28;20105;-82
2023/08/21 07:18:41;;;;;;;11.07;5.13;;;;;;;;;;4955024;28;20182;-82
2023/08/21 07:21:07;;;;;;;8.52;5.10;;;;;;;;;;4963725;28;20272;-82
2023/08/21 07:23:33;;;;;;;7.57;4.30;;;;;;;;;;4983579;28;20081;-81
2023/08/21 07:26:00;;;;;;;8.52;4.57;;;;;;;;;;4985604;28;20026;-81
2023/08/21 07:28:26;;;;;;;8.73;5.03;;;;;;;;;;4965931;28;20038;-83
2023/08/21 07:30:58;;;;;;;9.02;5.72;;;26.30;99.90;;;;;;4969907;28;20026;-82
2023/08/21 07:33:27;;;;;;;7.40;4.80;;;26.90;99.90;;;;;;4944707;28;20107;-82
2023/08/21 07:36:04;;;;;;;8.48;5.30;;;25.80;99.90;;;;;;4966241;28;20511;-82
2023/08/21 07:38:31;;;;;;;10.43;5.65;;;;;;;;;;4964485;28;20675;-84
2023/08/21 07:41:09;;;;;;;10.32;5.28;;;22.10;99.90;;;;;;4981664;28;20027;-81
2023/08/21 07:43:35;;;;;;;14.38;5.75;;;;;;;;;;4978714;28;20118;-83
2023/08/21 07:46:05;;;;;;;10.50;5.68;;;26.20;99.90;;;;;;4961075;28;20563;-83
2023/08/21 07:48:31;;;;;;;10.23;5.97;;;;;;;;;;4965799;28;20544;-83
2023/08/21 07:50:57;;;;;;;9.85;6.32;;;;;;;;;;4959513;28;20039;-83
2023/08/21 07:53:23;;;;;;;9.93;5.60;;;;;;;;;;4964989;28;20120;-84
2023/08/21 07:55:49;;;;;;;9.88;6.22;;;;;;;;;;4963414;28;20034;-82
2023/08/21 07:58:15;;;;;;;9.80;6.07;;;;;;;;;;4984426;28;20104;-83
2023/08/21 08:00:44;;;;;;;8.80;6.38;;;;;;;;;;4964337;28;20114;-83
2023/08/21 08:03:11;;;;;;;11.75;6.82;;;;;;;;;;4966564;28;20077;-83
2023/08/21 08:05:38;;;;;;;11.20;6.93;;;;;;;;;;4964961;28;20036;-84
2023/08/21 08:08:04;;;;;;;16.88;7.15;;;;;;;;;;4967561;28;20030;-82
2023/08/21 08:10:30;;;;;;;12.90;6.45;;;;;;;;;;4969454;28;20059;-84
2023/08/21 08:12:56;;;;;;;19.42;6.85;;;;;;;;;;4988057;28;20031;-84
2023/08/21 08:15:22;;;;;;;12.43;6.30;;;26.90;99.90;;;;;;4979237;28;20045;-81
2023/08/21 08:17:52;;;;;;;11.82;5.85;;;;;;;;;;4971007;28;20121;-84
2023/08/21 08:20:18;;;;;;;9.48;6.03;;;;;;;;;;4988966;28;20027;-84
2023/08/21 08:22:44;;;;;;;12.13;7.18;;;;;;;;;;4972939;28;20526;-84
2023/08/21 08:25:10;;;;;;;12.10;6.38;;;;;;;;;;4977433;28;20035;-84
2023/08/21 08:27:36;;;;;;;9.50;6.32;;;;;;;;;;4985936;28;20061;-84
2023/08/21 08:30:03;;;;;;;11.40;6.03;;;28.00;99.90;;;;;;4977412;28;20134;-84
2023/08/21 08:32:29;;;;;;;11.27;6.40;;;;;;;;;;4970600;28;20027;-82
2023/08/21 08:34:55;;;;;;;10.93;6.05;;;;;;;;;;4970776;28;20456;-84
2023/08/21 08:37:21;;;;;;;8.85;5.75;;;;;;;;;;4990082;28;20026;-84
2023/08/21 08:39:48;;;;;;;10.13;6.15;;;;;;;;;;4982250;28;20023;-83
2023/08/21 08:42:14;;;;;;;12.75;5.13;;;28.20;99.90;;;;;;4973533;28;20157;-84
2023/08/21 08:44:41;;;;;;;7.93;5.60;;;;;;;;;;4977592;28;20077;-82
2023/08/21 08:47:07;;;;;;;11.15;5.88;;;;;;;;;;4967739;28;20043;-84
2023/08/21 08:49:33;;;;;;;8.63;4.63;;;;;;;;;;4989300;28;20549;-83
2023/08/21 08:52:00;;;;;;;7.80;5.13;;;33.30;99.90;;;;;;4971275;28;20053;-84
2023/08/21 08:54:26;;;;;;;7.82;5.15;;;;;;;;;;4973627;28;20069;-82
2023/08/21 08:56:52;;;;;;;7.38;4.75;;;;;;;;;;4975919;28;20031;-82
2023/08/21 08:59:18;;;;;;;6.50;4.30;;;;;;;;;;4964941;28;20022;-81
2023/08/21 09:01:44;;;;;;;9.05;4.25;;;;;;;;;;4973610;28;20405;-82
2023/08/21 09:04:10;;;;;;;5.97;4.20;;;;;;;;;;4966263;28;20050;-83
2023/08/21 09:06:37;;;;;;;6.03;4.03;;;;;;;;;;4968383;28;20034;-82
2023/08/21 09:09:03;;;;;;;7.00;4.00;;;;;;;;;;4956778;28;20023;-83
2023/08/21 09:11:29;;;;;;;6.53;3.88;;;;;;;;;;4959241;28;20027;-80
2023/08/21 09:13:55;;;;;;;4.72;3.92;;;;;;;;;;4968447;28;20035;-83
2023/08/21 09:16:24;;;;;;;11.88;5.03;;;41.10;68.10;;;;;;4986040;28;20039;-79
2023/08/21 09:18:59;;;;;;;7.70;4.15;;;40.90;69.40;;;;;;4989962;28;20077;-79
2023/08/21 09:21:27;;;;;;;5.20;4.13;;;40.00;70.00;;;;;;4968449;28;20155;-84
2023/08/21 09:24:00;;;;;;;5.85;3.38;;;38.40;74.10;;;;;;4968627;28;20033;-83
2023/08/21 09:26:27;;;;;;;5.07;3.50;;;;;;;;;;4957561;28;20059;-82
2023/08/21 09:28:53;;;;;;;3.60;2.35;;;35.60;81.90;;;;;;4979382;28;20062;-82
2023/08/21 09:31:23;;;;;;;5.15;3.05;;;34.40;77.10;;;;;;4975602;28;20035;-83
2023/08/21 09:34:01;;;;;;;3.88;2.30;;;34.10;78.00;;;;;;4973937;28;20031;-82
2023/08/21 09:36:27;;;;;;;3.45;2.20;;;;;;;;;;4989158;28;20053;-83
2023/08/21 09:38:53;;;;;;;4.53;2.22;;;;;;;;;;4977201;28;20483;-83
2023/08/21 09:41:20;;;;;;;3.70;2.20;;;29.00;79.00;;;;;;4953049;28;20026;-80
2023/08/21 09:43:46;;;;;;;7.13;2.80;;;;;;;;;;4969438;28;20479;-83
2023/08/21 09:46:17;;;;;;;7.28;3.15;;;32.80;91.30;;;;;;4978726;28;20026;-83
2023/08/21 09:48:47;;;;;;;5.32;2.90;;;32.60;85.90;;;;;;4958568;28;20696;-81
2023/08/21 09:51:13;;;;;;;5.00;2.65;;;;;;;;;;4940532;28;20484;-83
2023/08/21 09:53:42;;;;;;;5.22;2.75;;;32.40;87.00;;;;;;4965768;28;20456;-82
2023/08/21 09:56:08;;;;;;;7.57;3.10;;;;;;;;;;4962379;28;20488;-82
2023/08/21 09:58:37;;;;;;;3.97;2.20;;;32.00;86.20;;;;;;4961348;28;20035;-82
2023/08/21 10:01:11;;;;;;;4.03;2.17;;;32.10;86.00;;;;;;4962278;28;20038;-83
2023/08/21 10:03:38;;;;;;;3.97;2.47;;;32.00;86.60;;;;;;4948627;28;20938;-82
2023/08/21 10:06:06;;;;;;;4.38;2.30;;;;;;;;;;4967979;28;20276;-83
2023/08/21 10:08:32;;;;;;;5.53;2.58;;;;;;;;;;4968892;28;20089;-83
2023/08/21 10:10:59;;;;;;;6.25;2.30;;;;;;;;;;4969204;28;20086;-83
2023/08/21 10:13:25;;;;;;;10.45;2.60;;;;;;;;;;4974827;28;20066;-81
2023/08/21 10:15:51;;;;;;;3.95;2.80;;;;;;;;;;4972918;28;20500;-81
2023/08/21 10:18:23;;;;;;;6.15;2.20;;;32.00;85.20;;;;;;4928655;28;20055;-83
2023/08/21 10:20:49;;;;;;;5.88;2.55;;;;;;;;;;4962187;28;20031;-82
2023/08/21 10:23:37;;;;;;;3.47;1.77;;;32.00;81.20;;;;;;4983992;28;20053;-84
2023/08/21 10:26:06;;;;;;;4.35;1.95;;;32.20;85.90;;;;;;4963018;28;20053;-83
2023/08/21 10:29:02;;;;;;;4.22;2.30;;;32.30;83.50;;;;;;4961105;28;20594;-82
2023/08/21 10:31:43;;;;;;;7.07;2.72;;;32.10;92.40;;;;;;4930897;28;20019;-82
2023/08/21 10:34:13;;;;;;;3.03;1.83;;;32.00;86.70;;;;;;4952862;28;20050;-81
2023/08/21 10:36:45;;;;;;;4.00;2.17;;;;;;;;;;4970114;28;20661;-80
2023/08/21 10:39:27;;;;;;;3.45;1.83;;;32.10;84.80;;;;;;4980310;28;20034;-80
2023/08/21 10:42:07;;;;;;;3.88;2.28;;;32.50;85.70;;;;;;4925028;28;20451;-82
2023/08/21 10:45:01;;;;;;;3.42;2.28;;;;;;;;;;4946212;28;20030;-83
2023/08/21 10:47:27;;;;;;;4.25;2.33;;;;;;;;;;4972758;28;20031;-80
2023/08/21 10:49:58;;;;;;;3.58;2.00;;;32.60;84.80;;;;;;4957440;28;20033;-80
2023/08/21 10:52:24;;;;;;;7.40;2.37;;;;;;;;;;4987760;23;20056;-81
2023/08/21 10:54:53;;;;;;;4.43;1.90;;;32.70;83.90;;;;;;5019692;28;20602;-82
2023/08/21 10:57:19;;;;;;;5.13;2.15;;;;;;;;;;5045609;28;20071;-81
2023/08/21 10:59:51;;;;;;;4.53;2.33;;;32.60;80.60;;;;;;5036933;28;20048;-82
2023/08/21 11:02:18;;;;;;;5.03;1.80;;;32.50;81.50;;;;;;5045282;28;20853;-82
2023/08/21 11:04:44;;;;;;;5.95;2.35;;;;;;;;;;5038693;28;20744;-82
2023/08/21 11:07:11;;;;;;;3.00;2.13;;;;;;;;;;5038772;28;20095;-81
2023/08/21 11:09:37;;;;;;;2.97;1.98;;;;;;;;;;5035429;28;20048;-82
2023/08/21 11:12:12;;;;;;;5.10;3.00;;;32.40;79.90;;;;;;5031815;28;20323;-82
2023/08/21 11:14:38;;;;;;;4.10;2.13;;;;;;;;;;5037101;28;20067;-81
2023/08/21 11:17:05;;;;;;;4.63;2.38;;;;;;;;;;5033934;28;20055;-81
2023/08/21 11:19:32;;;;;;;4.22;2.08;;;32.40;94.70;;;;;;5040141;28;20029;-81
2023/08/21 11:22:00;;;;;;;6.07;2.28;;;;;;;;;;5050563;28;20036;-82
2023/08/21 11:24:31;;;;;;;5.32;1.83;;;32.70;80.90;;;;;;5054729;28;20092;-82
2023/08/21 11:26:57;;;;;;;5.22;2.28;;;;;;;;;;5049547;28;20025;-83
2023/08/21 11:29:23;;;;;;;5.05;2.00;;;;;;;;;;5049018;28;20044;-82
2023/08/21 11:31:49;;;;;;;2.88;2.00;;;;;;;;;;5051518;28;20029;-83
2023/08/21 11:34:19;;;;;;;2.97;1.63;;;32.70;94.50;;;;;;5037390;28;20037;-82
2023/08/21 11:36:45;;;;;;;5.95;2.22;;;;;;;;;;5034717;28;20043;-82
2023/08/21 11:39:11;;;;;;;3.20;2.17;;;;;;;;;;5038238;28;20645;-81
2023/08/21 11:41:58;;;;;;;3.78;1.88;;;32.50;76.80;;;;;;5038642;28;20029;-81
2023/08/21 11:44:25;;;;;;;6.93;2.03;;;;;;;;;;5035899;28;21873;-82
2023/08/21 11:46:54;;;;;;;3.20;1.60;;;;;;;;;;5034294;28;20017;-82
2023/08/21 11:49:22;;;;;;;3.25;1.85;;;;;;;;;;5032274;28;20036;-82
2023/08/21 11:51:48;;;;;;;7.45;2.17;;;;;;;;;;5042241;28;20079;-82
2023/08/21 11:54:13;;;;;;;6.10;2.25;;;33.20;91.30;;;;;;5039313;28;20037;-83
2023/08/21 11:56:42;;;;;;;4.07;2.28;;;;;;;;;;5044450;28;20311;-82
2023/08/21 11:59:09;;;;;;;3.70;1.80;;;;;;;;;;5036607;28;20113;-82
2023/08/21 12:01:35;;;;;;;3.05;1.70;;;;;;;;;;5040949;28;20060;-82
2023/08/21 12:04:01;;;;;;;3.05;1.50;;;;;;;;;;5045908;28;20029;-81
2023/08/21 12:06:32;;;;;;;4.18;2.00;;;33.40;82.10;;;;;;5054023;28;20159;-82
2023/08/21 12:08:58;;;;;;;3.03;1.92;;;;;;;;;;5052707;28;20203;-80
2023/08/21 12:11:24;;;;;;;11.25;2.33;;;;;;;;;;5039896;28;20787;-80
2023/08/21 12:13:51;;;;;;;11.18;2.42;;;32.80;80.00;;;;;;5024006;28;20044;-81
2023/08/21 12:16:17;;;;;;;9.55;2.55;;;;;;;;;;5042833;28;20484;-80
2023/08/21 12:18:43;;;;;;;4.57;2.05;;;;;;;;;;5044534;28;20020;-80
2023/08/21 12:21:09;;;;;;;5.18;1.90;;;;;;;;;;5045675;28;20059;-82
2023/08/21 12:23:36;;;;;;;4.72;2.20;;;;;;;;;;5026450;28;20506;-82
2023/08/21 12:26:01;;;;;;;5.70;2.00;;;;;;;;;;5047336;28;20403;-82
2023/08/21 12:28:27;;;;;;;5.47;2.50;;;;;;;;;;5034520;28;20033;-84
2023/08/21 12:30:53;;;;;;;4.43;1.85;;;;;;;;;;5045019;28;20494;-85
2023/08/21 12:33:19;;;;;;;8.45;1.77;;;;;;;;;;5037963;28;20033;-85
2023/08/21 12:35:45;;;;;;;4.65;1.52;;;33.40;95.00;;;;;;5044626;28;20116;-83
2023/08/21 12:38:12;;;;;;;7.20;1.83;;;32.80;81.00;;;;;;5024543;28;20025;-84
2023/08/21 12:40:39;;;;;;;7.50;1.85;;;32.70;74.90;;;;;;5028536;28;20123;-83
2023/08/21 12:43:06;;;;;;;7.03;1.83;;;;;;;;;;5032801;28;20029;-82
2023/08/21 12:45:31;;;;;;;3.92;1.90;;;;;;;;;;5039886;28;20033;-81
2023/08/21 12:47:57;;;;;;;4.00;1.67;;;;;;;;;;5042229;28;20114;-83
2023/08/21 12:50:26;;;;;;;6.95;1.95;;;;;;;;;;5043915;28;20134;-81
2023/08/21 12:52:52;;;;;;;6.90;2.03;;;;;;;;;;5030901;28;20031;-81
2023/08/21 12:55:19;;;;;;;3.65;1.90;;;;;;;;;;5044780;28;20029;-82
2023/08/21 12:57:45;;;;;;;5.55;1.83;;;;;;;;;;5045221;28;20036;-82
2023/08/21 13:00:11;;;;;;;2.90;1.63;;;;;;;;;;5049445;28;20021;-81
2023/08/21 13:02:37;;;;;;;5.53;1.73;;;;;;;;;;5049276;28;20657;-87
2023/08/21 13:05:05;;;;;;;4.00;1.98;;;;;;;;;;5033267;28;20033;-83
2023/08/21 13:07:31;;;;;;;3.10;1.42;;;;;;;;;;5042398;28;20110;-83
2023/08/21 13:09:59;;;;;;;3.28;1.60;;;;;;;;;;5046889;28;20020;-84
2023/08/21 13:12:25;;;;;;;2.28;1.35;;;;;;;;;;5037613;28;20029;-82
2023/08/21 13:14:51;;;;;;;5.50;2.25;;;;;;;;;;5028361;28;20021;-84
2023/08/21 13:17:17;;;;;;;4.10;1.95;;;;;;;;;;5032630;28;20223;-83
2023/08/21 13:19:43;;;;;;;4.63;2.05;;;;;;;;;;5040744;28;20352;-83
2023/08/21 13:22:09;;;;;;;4.18;1.90;;;;;;;;;;5023989;28;20029;-84
2023/08/21 13:24:35;;;;;;;3.45;2.22;;;;;;;;;;5036362;28;20474;-83
2023/08/21 13:27:01;;;;;;;2.15;1.27;;;33.60;94.10;;;;;;5049807;28;20021;-82
2023/08/21 13:29:27;;;;;;;4.97;2.15;;;;;;;;;;5044073;28;20040;-83
2023/08/21 13:31:52;;;;;;;3.85;1.95;;;32.90;90.10;;;;;;5051393;28;20025;-83
2023/08/21 13:34:18;;;;;;;3.42;1.92;;;;;;;;;;5040519;28;20035;-83
2023/08/21 13:36:44;;;;;;;3.90;1.63;;;;;;;;;;5042949;28;20033;-83
2023/08/21 13:39:12;;;;;;;2.90;1.67;;;;;;;;;;5048430;28;20025;-82
2023/08/21 13:41:38;;;;;;;3.30;2.05;;;;;;;;;;5043661;28;20117;-83
2023/08/21 13:44:05;;;;;;;6.90;1.83;;;;;;;;;;5049089;28;20025;-82
2023/08/21 13:46:33;;;;;;;2.78;1.88;;;33.10;78.10;;;;;;5049868;28;20032;-82
2023/08/21 13:48:58;;;;;;;3.83;1.90;;;33.20;90.80;;;;;;5051866;28;20077;-83
2023/08/21 13:51:24;;;;;;;4.75;2.10;;;;;;;;;;5044963;28;20399;-82
2023/08/21 13:53:50;;;;;;;2.95;1.73;;;;;;;;;;5032571;28;20082;-81
2023/08/21 13:56:17;;;;;;;3.13;1.60;;;33.30;83.90;;;;;;5048608;28;20031;-82
2023/08/21 13:58:43;;;;;;;4.25;1.90;;;;;;;;;;5041702;28;20034;-82
2023/08/21 14:01:09;;;;;;;3.63;2.08;;;;;;;;;;5044916;28;20083;-82
2023/08/21 14:03:36;;;;;;;4.97;1.73;;;;;;;;;;5049552;28;20056;-81
2023/08/21 14:06:02;;;;;;;3.08;1.65;;;;;;;;;;5045849;28;20071;-82
2023/08/21 14:08:29;;;;;;;3.78;2.10;;;;;;;;;;5042492;28;20508;-82
2023/08/21 14:10:55;;;;;;;2.95;1.40;;;;;;;;;;5051091;28;20025;-81